Time,TemperatureF,DewpointF,PressureIn,WindDirection,WindDirectionDegrees,WindSpeedMPH,WindSpeedGustMPH,Humidity,HourlyPrecipIn,Conditions,Clouds,dailyrainin,SolarRadiationWatts/m^2,SoftwareType,DateUTC
2013-06-25 00:11:00,56.0,13.0,-100.00,WSW,253,3.0,10.0,18,0.00,,,0.00,0.000000,,2013-06-25 06:11:00,
2013-06-25 00:21:00,56.0,13.0,-100.00,WSW,253,3.0,10.0,18,0.00,,,0.00,0.000000,,2013-06-25 06:21:00,
2013-06-25 00:33:00,56.0,13.0,-100.00,WSW,253,3.0,10.0,18,0.00,,,0.00,0.000000,,2013-06-25 06:33:00,
2013-06-25 00:43:00,56.0,13.0,-100.00,WSW,253,3.0,10.0,18,0.00,,,0.00,0.000000,,2013-06-25 06:43:00,
2013-06-25 01:11:00,57.0,16.0,-100.00,WSW,248,9.0,13.0,20,0.00,,,0.00,0.000000,,2013-06-25 07:11:00,
2013-06-25 01:22:00,57.0,16.0,-100.00,WSW,248,9.0,13.0,20,0.00,,,0.00,0.000000,,2013-06-25 07:22:00,
2013-06-25 01:33:00,57.0,16.0,-100.00,WSW,248,9.0,13.0,20,0.00,,,0.00,0.000000,,2013-06-25 07:33:00,
2013-06-25 01:43:00,57.0,16.0,-100.00,WSW,248,9.0,13.0,20,0.00,,,0.00,0.000000,,2013-06-25 07:43:00,
2013-06-25 02:11:00,53.0,14.0,-100.00,SW,225,6.0,9.0,21,0.00,,,0.00,0.000000,,2013-06-25 08:11:00,
2013-06-25 02:21:00,53.0,14.0,-100.00,SW,225,6.0,9.0,21,0.00,,,0.00,0.000000,,2013-06-25 08:21:00,
2013-06-25 02:34:00,53.0,14.0,-100.00,SW,225,6.0,9.0,21,0.00,,,0.00,0.000000,,2013-06-25 08:34:00,
2013-06-25 02:43:00,53.0,14.0,-100.00,SW,225,6.0,9.0,21,0.00,,,0.00,0.000000,,2013-06-25 08:43:00,
2013-06-25 03:12:00,55.0,14.0,-100.00,SW,232,5.0,8.0,19,0.00,,,0.00,0.000000,,2013-06-25 09:12:00,
2013-06-25 03:22:00,55.0,14.0,-100.00,SW,232,5.0,8.0,19,0.00,,,0.00,0.000000,,2013-06-25 09:22:00,
2013-06-25 03:33:00,55.0,14.0,-100.00,SW,232,5.0,8.0,19,0.00,,,0.00,0.000000,,2013-06-25 09:33:00,
2013-06-25 03:43:00,55.0,14.0,-100.00,SW,232,5.0,8.0,19,0.00,,,0.00,0.000000,,2013-06-25 09:43:00,
2013-06-25 04:11:00,53.0,14.0,-100.00,SW,229,6.0,8.0,21,0.00,,,0.00,0.000000,,2013-06-25 10:11:00,
2013-06-25 04:21:00,53.0,14.0,-100.00,SW,229,6.0,8.0,21,0.00,,,0.00,0.000000,,2013-06-25 10:21:00,
2013-06-25 04:33:00,53.0,14.0,-100.00,SW,229,6.0,8.0,21,0.00,,,0.00,0.000000,,2013-06-25 10:33:00,
2013-06-25 04:42:00,53.0,14.0,-100.00,SW,229,6.0,8.0,21,0.00,,,0.00,0.000000,,2013-06-25 10:42:00,
2013-06-25 05:12:00,49.0,13.0,-100.00,SW,219,7.0,12.0,23,0.00,,,0.00,0.000000,,2013-06-25 11:12:00,
2013-06-25 05:22:00,49.0,13.0,-100.00,SW,219,7.0,12.0,23,0.00,,,0.00,0.000000,,2013-06-25 11:22:00,
2013-06-25 05:34:00,49.0,13.0,-100.00,SW,219,7.0,12.0,23,0.00,,,0.00,0.000000,,2013-06-25 11:34:00,
2013-06-25 05:43:00,49.0,13.0,-100.00,SW,219,7.0,12.0,23,0.00,,,0.00,0.000000,,2013-06-25 11:43:00,
2013-06-25 06:11:00,50.0,14.0,-100.00,SSW,211,7.0,18.0,23,0.00,,,0.00,0.000000,,2013-06-25 12:11:00,
2013-06-25 06:22:00,50.0,14.0,-100.00,SSW,211,7.0,18.0,23,0.00,,,0.00,0.000000,,2013-06-25 12:22:00,
2013-06-25 06:33:00,50.0,14.0,-100.00,SSW,211,7.0,18.0,23,0.00,,,0.00,0.000000,,2013-06-25 12:33:00,
2013-06-25 06:43:00,50.0,14.0,-100.00,SSW,211,7.0,18.0,23,0.00,,,0.00,0.000000,,2013-06-25 12:43:00,
2013-06-25 07:11:00,51.0,14.0,-100.00,WSW,238,8.0,18.0,22,0.00,,,0.00,72.000000,,2013-06-25 13:11:00,
2013-06-25 07:34:00,51.0,14.0,-100.00,WSW,238,8.0,18.0,22,0.00,,,0.00,72.000000,,2013-06-25 13:34:00,
2013-06-25 07:42:00,51.0,14.0,-100.00,WSW,238,8.0,18.0,22,0.00,,,0.00,72.000000,,2013-06-25 13:42:00,
2013-06-25 08:34:00,56.0,19.0,-100.00,SW,230,7.0,16.0,23,0.00,,,0.00,298.000000,,2013-06-25 14:34:00,
2013-06-25 08:43:00,56.0,19.0,-100.00,SW,230,7.0,16.0,23,0.00,,,0.00,298.000000,,2013-06-25 14:43:00,
2013-06-25 09:32:00,59.0,18.0,-100.00,West,274,10.0,17.0,20,0.00,,,0.00,544.000000,,2013-06-25 15:32:00,
2013-06-25 09:44:00,59.0,18.0,-100.00,West,274,10.0,17.0,20,0.00,,,0.00,544.000000,,2013-06-25 15:44:00,
2013-06-25 10:12:00,62.0,19.0,-100.00,WNW,290,10.0,20.0,19,0.00,,,0.00,782.000000,,2013-06-25 16:12:00,
2013-06-25 10:23:00,62.0,19.0,-100.00,WNW,290,10.0,20.0,19,0.00,,,0.00,782.000000,,2013-06-25 16:23:00,
2013-06-25 10:35:00,62.0,19.0,-100.00,WNW,290,10.0,20.0,19,0.00,,,0.00,782.000000,,2013-06-25 16:35:00,
2013-06-25 10:44:00,62.0,19.0,-100.00,WNW,290,10.0,20.0,19,0.00,,,0.00,782.000000,,2013-06-25 16:44:00,
2013-06-25 11:11:00,64.0,20.0,-100.00,NW,314,9.0,21.0,18,0.00,,,0.00,985.000000,,2013-06-25 17:11:00,
2013-06-25 11:22:00,64.0,20.0,-100.00,NW,314,9.0,21.0,18,0.00,,,0.00,985.000000,,2013-06-25 17:22:00,
2013-06-25 11:33:00,64.0,20.0,-100.00,NW,314,9.0,21.0,18,0.00,,,0.00,985.000000,,2013-06-25 17:33:00,
2013-06-25 11:44:00,64.0,20.0,-100.00,NW,314,9.0,21.0,18,0.00,,,0.00,985.000000,,2013-06-25 17:44:00,
2013-06-25 12:12:00,67.0,22.0,-100.00,NW,321,7.0,19.0,18,0.00,,,0.00,1141.000000,,2013-06-25 18:12:00,
2013-06-25 12:22:00,67.0,22.0,-100.00,NW,321,7.0,19.0,18,0.00,,,0.00,1141.000000,,2013-06-25 18:22:00,
2013-06-25 12:34:00,67.0,22.0,-100.00,NW,321,7.0,19.0,18,0.00,,,0.00,1141.000000,,2013-06-25 18:34:00,
2013-06-25 12:44:00,67.0,22.0,-100.00,NW,321,7.0,19.0,18,0.00,,,0.00,1141.000000,,2013-06-25 18:44:00,
2013-06-25 13:12:00,70.0,25.0,-100.00,WNW,288,9.0,22.0,18,0.00,,,0.00,1230.000000,,2013-06-25 19:12:00,
2013-06-25 13:22:00,70.0,25.0,-100.00,WNW,288,9.0,22.0,18,0.00,,,0.00,1230.000000,,2013-06-25 19:22:00,
2013-06-25 13:33:00,70.0,25.0,-100.00,WNW,288,9.0,22.0,18,0.00,,,0.00,1230.000000,,2013-06-25 19:33:00,
2013-06-25 13:44:00,70.0,25.0,-100.00,WNW,288,9.0,22.0,18,0.00,,,0.00,1230.000000,,2013-06-25 19:44:00,
2013-06-25 14:11:00,72.0,27.0,-100.00,WNW,295,13.0,25.0,19,0.00,,,0.00,1250.000000,,2013-06-25 20:11:00,
2013-06-25 14:22:00,72.0,27.0,-100.00,WNW,295,13.0,25.0,19,0.00,,,0.00,1250.000000,,2013-06-25 20:22:00,
2013-06-25 14:33:00,72.0,27.0,-100.00,WNW,295,13.0,25.0,19,0.00,,,0.00,1250.000000,,2013-06-25 20:33:00,
2013-06-25 14:42:00,72.0,27.0,-100.00,WNW,295,13.0,25.0,19,0.00,,,0.00,1250.000000,,2013-06-25 20:42:00,
2013-06-25 15:11:00,72.0,26.0,-100.00,NE,51,9.0,27.0,18,0.00,,,0.00,1194.000000,,2013-06-25 21:11:00,
2013-06-25 15:22:00,72.0,26.0,-100.00,NE,51,9.0,27.0,18,0.00,,,0.00,1194.000000,,2013-06-25 21:22:00,
2013-06-25 15:34:00,72.0,26.0,-100.00,NE,51,9.0,27.0,18,0.00,,,0.00,1194.000000,,2013-06-25 21:34:00,
2013-06-25 15:43:00,72.0,26.0,-100.00,NE,51,9.0,27.0,18,0.00,,,0.00,1194.000000,,2013-06-25 21:43:00,
2013-06-25 16:11:00,73.0,27.0,-100.00,WNW,289,14.0,24.0,18,0.00,,,0.00,1119.000000,,2013-06-25 22:11:00,
2013-06-25 16:22:00,73.0,27.0,-100.00,WNW,289,14.0,24.0,18,0.00,,,0.00,1119.000000,,2013-06-25 22:22:00,
2013-06-25 16:33:00,73.0,27.0,-100.00,WNW,289,14.0,24.0,18,0.00,,,0.00,1119.000000,,2013-06-25 22:33:00,
2013-06-25 16:42:00,73.0,27.0,-100.00,WNW,289,14.0,24.0,18,0.00,,,0.00,1119.000000,,2013-06-25 22:42:00,
2013-06-25 17:11:00,73.0,27.0,-100.00,WNW,296,13.0,24.0,18,0.00,,,0.00,955.000000,,2013-06-25 23:11:00,
2013-06-25 17:22:00,73.0,27.0,-100.00,WNW,296,13.0,24.0,18,0.00,,,0.00,955.000000,,2013-06-25 23:22:00,
2013-06-25 17:34:00,73.0,27.0,-100.00,WNW,296,13.0,24.0,18,0.00,,,0.00,955.000000,,2013-06-25 23:34:00,
2013-06-25 17:43:00,73.0,27.0,-100.00,WNW,296,13.0,24.0,18,0.00,,,0.00,955.000000,,2013-06-25 23:43:00,
2013-06-25 18:11:00,74.0,28.0,-100.00,NW,321,9.0,26.0,18,0.00,,,0.00,744.000000,,2013-06-26 00:11:00,
2013-06-25 18:22:00,74.0,28.0,-100.00,NW,321,9.0,26.0,18,0.00,,,0.00,744.000000,,2013-06-26 00:22:00,
2013-06-25 18:33:00,74.0,28.0,-100.00,NW,321,9.0,26.0,18,0.00,,,0.00,744.000000,,2013-06-26 00:33:00,
2013-06-25 18:42:00,74.0,28.0,-100.00,NW,321,9.0,26.0,18,0.00,,,0.00,744.000000,,2013-06-26 00:42:00,
2013-06-25 19:11:00,72.0,27.0,-100.00,NW,313,8.0,22.0,19,0.00,,,0.00,242.000000,,2013-06-26 01:11:00,
2013-06-25 19:22:00,72.0,27.0,-100.00,NW,313,8.0,22.0,19,0.00,,,0.00,242.000000,,2013-06-26 01:22:00,
2013-06-25 19:33:00,72.0,27.0,-100.00,NW,313,8.0,22.0,19,0.00,,,0.00,242.000000,,2013-06-26 01:33:00,
2013-06-25 19:43:00,72.0,27.0,-100.00,NW,313,8.0,22.0,19,0.00,,,0.00,242.000000,,2013-06-26 01:43:00,
2013-06-25 20:11:00,67.0,26.0,-100.00,NW,326,7.0,25.0,21,0.00,,,0.00,25.000000,,2013-06-26 02:11:00,
2013-06-25 20:22:00,67.0,26.0,-100.00,NW,326,7.0,25.0,21,0.00,,,0.00,25.000000,,2013-06-26 02:22:00,
2013-06-25 20:34:00,67.0,26.0,-100.00,NW,326,7.0,25.0,21,0.00,,,0.00,25.000000,,2013-06-26 02:34:00,
2013-06-25 20:43:00,67.0,26.0,-100.00,NW,326,7.0,25.0,21,0.00,,,0.00,25.000000,,2013-06-26 02:43:00,
2013-06-25 21:11:00,63.0,26.0,-100.00,NNW,336,4.0,13.0,24,0.00,,,0.00,28.000000,,2013-06-26 03:11:00,
2013-06-25 21:22:00,63.0,26.0,-100.00,NNW,336,4.0,13.0,24,0.00,,,0.00,28.000000,,2013-06-26 03:22:00,
2013-06-25 21:33:00,63.0,26.0,-100.00,NNW,336,4.0,13.0,24,0.00,,,0.00,28.000000,,2013-06-26 03:33:00,
2013-06-25 21:43:00,63.0,26.0,-100.00,NNW,336,4.0,13.0,24,0.00,,,0.00,28.000000,,2013-06-26 03:43:00,
2013-06-25 22:12:00,59.0,24.0,-100.00,ENE,77,0.0,7.0,26,0.00,,,0.00,0.000000,,2013-06-26 04:12:00,
2013-06-25 22:22:00,59.0,24.0,-100.00,ENE,77,0.0,7.0,26,0.00,,,0.00,0.000000,,2013-06-26 04:22:00,
2013-06-25 22:33:00,59.0,24.0,-100.00,ENE,77,0.0,7.0,26,0.00,,,0.00,0.000000,,2013-06-26 04:33:00,
2013-06-25 22:43:00,59.0,24.0,-100.00,ENE,77,0.0,7.0,26,0.00,,,0.00,0.000000,,2013-06-26 04:43:00,
2013-06-25 23:11:00,59.0,24.0,-100.00,West,274,2.0,7.0,26,0.00,,,0.00,0.000000,,2013-06-26 05:11:00,
2013-06-25 23:22:00,59.0,24.0,-100.00,West,274,2.0,7.0,26,0.00,,,0.00,0.000000,,2013-06-26 05:22:00,
2013-06-25 23:34:00,59.0,24.0,-100.00,West,274,2.0,7.0,26,0.00,,,0.00,0.000000,,2013-06-26 05:34:00,
2013-06-25 23:43:00,59.0,24.0,-100.00,West,274,2.0,7.0,26,0.00,,,0.00,0.000000,,2013-06-26 05:43:00,